Main page
METAR-TAF:

METAR-TAF

Airports :

Merrill Field

Anchorage, Alaska, United States

latitude: 61-13N, longitude: 149-51W, elevation: 138 ft

Current weather observation

The report was made 28 minutes ago, at 09:22 UTC
Wind 9 mph from the West/Northwest
Temperature 37°F
Humidity 87%
Pressure 29.11 in. Hg
Visibility: 10 miles
Overcast at a height of 800 ft

METAR: PAMR 240922Z 30008KT 10SM OVC008 03/01 A2911 RMK AO2 RAE06UPB0855E0857B06E12 P0000 T00280006 $

Time: 01:50 (09:50 UTC)


TAF: missing

Weather observations and forecasts of more than 4000 airports (METAR and TAF reports).

The available stations are represented by yellow and red dots on the map.

Hover mouse over dot to see the name of the station.

Then click to see weather observations and forecasts.

To change the map : click on the green buttons with a black cross to zoom in, on the green button with a dash to zoom out, or on the green arrows for adjacent maps.


METAR-TAF: